createdAt,value
2018-11-01T00:00:19.578Z,954.99
2018-11-01T00:01:19.550Z,955.01
2018-11-01T00:02:19.523Z,954.98
2018-11-01T00:03:19.496Z,954.94
2018-11-01T00:04:19.470Z,954.98
2018-11-01T00:05:19.444Z,954.96
2018-11-01T00:06:19.419Z,954.99
2018-11-01T00:07:19.390Z,954.98
2018-11-01T00:08:19.364Z,954.98
2018-11-01T00:09:19.337Z,955.00
2018-11-01T00:10:19.310Z,954.97
2018-11-01T00:11:19.285Z,954.90
2018-11-01T00:12:19.256Z,954.90
2018-11-01T00:13:19.231Z,954.98
2018-11-01T00:14:19.204Z,954.97
2018-11-01T00:15:19.177Z,954.96
2018-11-01T00:16:19.149Z,954.97
2018-11-01T00:17:19.124Z,954.99
2018-11-01T00:18:19.097Z,955.00
2018-11-01T00:19:19.069Z,955.02
2018-11-01T00:20:19.042Z,955.03
2018-11-01T00:21:19.015Z,954.98
2018-11-01T00:22:18.989Z,954.91
2018-11-01T00:23:18.962Z,954.86
2018-11-01T00:24:18.935Z,954.88
2018-11-01T00:25:18.908Z,954.91
2018-11-01T00:26:18.880Z,954.90
2018-11-01T00:27:18.855Z,954.91
2018-11-01T00:28:18.828Z,954.90
2018-11-01T00:29:18.803Z,954.91
2018-11-01T00:30:18.773Z,954.81
2018-11-01T00:31:18.747Z,954.82
2018-11-01T00:32:18.721Z,954.81
2018-11-01T00:33:18.693Z,954.84
2018-11-01T00:34:18.665Z,954.87
2018-11-01T00:35:18.639Z,954.91
2018-11-01T00:36:18.611Z,954.93
2018-11-01T00:37:18.584Z,954.92
2018-11-01T00:38:18.557Z,954.94
2018-11-01T00:39:18.531Z,954.96
2018-11-01T00:40:18.503Z,954.96
2018-11-01T00:41:18.478Z,954.93
2018-11-01T00:42:18.448Z,954.89
2018-11-01T00:43:18.431Z,954.91
2018-11-01T00:44:18.394Z,954.86
2018-11-01T00:45:18.368Z,954.87
2018-11-01T00:46:18.341Z,954.84
2018-11-01T00:47:18.312Z,954.80
2018-11-01T00:48:18.292Z,954.85
2018-11-01T00:49:18.259Z,954.87
2018-11-01T00:50:18.230Z,954.97
2018-11-01T00:51:18.204Z,955.00
2018-11-01T00:52:18.177Z,955.01
2018-11-01T00:53:18.150Z,954.96
2018-11-01T00:54:18.122Z,954.97
2018-11-01T00:55:18.095Z,954.91
2018-11-01T00:56:18.067Z,954.87
2018-11-01T00:57:18.045Z,954.88
2018-11-01T00:58:18.013Z,954.91
2018-11-01T00:59:17.985Z,954.88
2018-11-01T01:00:17.958Z,954.90
2018-11-01T01:01:17.932Z,954.93
2018-11-01T01:02:17.904Z,954.90
2018-11-01T01:03:17.875Z,954.82
2018-11-01T01:04:17.849Z,954.77
2018-11-01T01:05:17.821Z,954.75
2018-11-01T01:06:17.793Z,954.70
2018-11-01T01:07:17.770Z,954.70
2018-11-01T01:08:17.743Z,954.63
2018-11-01T01:09:17.712Z,954.57
2018-11-01T01:10:17.684Z,954.59
2018-11-01T01:11:17.657Z,954.60
2018-11-01T01:12:17.636Z,954.71
2018-11-01T01:13:17.601Z,954.78
2018-11-01T01:14:17.574Z,954.83
2018-11-01T01:15:17.545Z,954.82
2018-11-01T01:16:17.518Z,954.82
2018-11-01T01:17:17.492Z,954.76
2018-11-01T01:18:17.466Z,954.74
2018-11-01T01:19:17.436Z,954.75
2018-11-01T01:20:17.417Z,954.72
2018-11-01T01:21:17.381Z,954.67
2018-11-01T01:22:17.354Z,954.69
2018-11-01T01:23:17.326Z,954.69
2018-11-01T01:24:17.306Z,954.65
2018-11-01T01:25:17.272Z,954.62
2018-11-01T01:26:17.246Z,954.53
2018-11-01T01:27:17.217Z,954.51
2018-11-01T01:28:17.189Z,954.44
2018-11-01T01:29:17.162Z,954.41
2018-11-01T01:30:17.133Z,954.43
2018-11-01T01:31:17.106Z,954.47
2018-11-01T01:32:17.079Z,954.47
2018-11-01T01:33:17.052Z,954.46
2018-11-01T01:34:17.024Z,954.49
2018-11-01T01:35:16.999Z,954.57
2018-11-01T01:36:16.968Z,954.62
2018-11-01T01:37:16.942Z,954.58
2018-11-01T01:38:16.913Z,954.56
2018-11-01T01:39:16.887Z,954.57
2018-11-01T01:40:16.859Z,954.52
2018-11-01T01:41:16.832Z,954.52
2018-11-01T01:42:16.804Z,954.47
2018-11-01T01:43:16.776Z,954.44
2018-11-01T01:44:16.749Z,954.39
2018-11-01T01:45:16.722Z,954.38
2018-11-01T01:46:16.693Z,954.39
2018-11-01T01:47:16.667Z,954.42
2018-11-01T01:48:16.639Z,954.43
2018-11-01T01:49:16.611Z,954.38
2018-11-01T01:50:16.610Z,954.35
2018-11-01T01:51:16.555Z,954.37
2018-11-01T01:52:16.528Z,954.31
2018-11-01T01:53:16.501Z,954.36
2018-11-01T01:54:16.472Z,954.44
2018-11-01T01:55:16.445Z,954.45
2018-11-01T01:56:16.419Z,954.43
2018-11-01T01:57:16.391Z,954.41
2018-11-01T01:58:16.362Z,954.37
2018-11-01T01:59:16.334Z,954.36
2018-11-01T02:00:16.308Z,954.37
2018-11-01T02:01:16.280Z,954.35
2018-11-01T02:02:16.252Z,954.36
2018-11-01T02:03:16.224Z,954.36
2018-11-01T02:04:16.198Z,954.33
2018-11-01T02:05:16.170Z,954.28
2018-11-01T02:06:16.142Z,954.36
2018-11-01T02:07:16.115Z,954.39
2018-11-01T02:08:16.086Z,954.36
2018-11-01T02:09:16.060Z,954.38
2018-11-01T02:10:16.034Z,954.30
2018-11-01T02:11:16.005Z,954.23
2018-11-01T02:12:15.975Z,954.17
2018-11-01T02:13:15.948Z,954.14
2018-11-01T02:14:15.920Z,954.18
2018-11-01T02:15:15.894Z,954.13
2018-11-01T02:16:15.865Z,954.07
2018-11-01T02:17:15.838Z,954.06
2018-11-01T02:18:15.812Z,954.04
2018-11-01T02:19:15.783Z,954.05
2018-11-01T02:20:15.755Z,954.09
2018-11-01T02:21:15.729Z,954.17
2018-11-01T02:22:15.700Z,954.20
2018-11-01T02:23:15.672Z,954.19
2018-11-01T02:24:15.645Z,954.19
2018-11-01T02:25:15.618Z,954.16
2018-11-01T02:26:15.591Z,954.15
2018-11-01T02:27:15.563Z,954.12
2018-11-01T02:28:15.536Z,954.13
2018-11-01T02:29:15.509Z,954.14
2018-11-01T02:30:15.481Z,954.18
2018-11-01T02:31:15.453Z,954.19
2018-11-01T02:32:15.426Z,954.14
2018-11-01T02:33:15.399Z,954.14
2018-11-01T02:34:15.372Z,954.09
2018-11-01T02:35:15.344Z,954.09
2018-11-01T02:36:15.317Z,954.05
2018-11-01T02:37:15.289Z,954.04
2018-11-01T02:38:15.388Z,954.02
2018-11-01T02:39:15.235Z,954.02
2018-11-01T02:40:15.208Z,954.09
2018-11-01T02:41:16.681Z,954.08
2018-11-01T02:42:15.153Z,954.07
2018-11-01T02:43:15.124Z,954.08
2018-11-01T02:44:15.098Z,954.10
2018-11-01T02:45:15.070Z,954.08
2018-11-01T02:46:15.043Z,954.06
2018-11-01T02:47:15.015Z,954.02
2018-11-01T02:48:14.987Z,954.06
2018-11-01T02:49:14.961Z,954.02
2018-11-01T02:50:14.933Z,953.99
2018-11-01T02:51:14.913Z,953.99
2018-11-01T02:52:14.881Z,954.00
2018-11-01T02:53:14.852Z,954.01
2018-11-01T02:54:14.824Z,954.01
2018-11-01T02:55:14.800Z,954.07
2018-11-01T02:56:14.770Z,954.15
2018-11-01T02:57:14.744Z,954.15
2018-11-01T02:58:14.715Z,954.16
2018-11-01T02:59:14.687Z,954.22
2018-11-01T03:00:14.659Z,954.20
2018-11-01T03:01:14.635Z,954.16
2018-11-01T03:02:14.606Z,954.16
2018-11-01T03:03:14.580Z,954.13
2018-11-01T03:04:14.551Z,954.11
2018-11-01T03:05:14.523Z,954.09
2018-11-01T03:06:14.497Z,954.07
2018-11-01T03:07:14.471Z,954.02
2018-11-01T03:08:14.444Z,954.02
2018-11-01T03:09:14.414Z,953.97
2018-11-01T03:10:14.400Z,953.93
2018-11-01T03:11:14.358Z,953.96
2018-11-01T03:12:14.331Z,953.95
2018-11-01T03:13:14.307Z,953.95
2018-11-01T03:14:14.276Z,954.00
2018-11-01T03:15:14.250Z,954.02
2018-11-01T03:16:14.224Z,954.02
2018-11-01T03:17:14.233Z,954.00
2018-11-01T03:18:14.167Z,953.99
2018-11-01T03:19:14.139Z,953.97
2018-11-01T03:20:14.119Z,953.93
2018-11-01T03:21:14.084Z,953.91
2018-11-01T03:22:14.055Z,953.87
2018-11-01T03:23:14.032Z,953.82
2018-11-01T03:24:14.003Z,953.84
2018-11-01T03:25:13.980Z,953.81
2018-11-01T03:26:13.954Z,953.84
2018-11-01T03:27:13.918Z,953.81
2018-11-01T03:28:13.890Z,953.89
2018-11-01T03:29:13.863Z,953.92
2018-11-01T03:30:13.835Z,953.92
2018-11-01T03:31:13.810Z,953.98
2018-11-01T03:32:13.784Z,953.99
2018-11-01T03:33:13.754Z,954.01
2018-11-01T03:34:13.730Z,954.05
2018-11-01T03:35:13.719Z,954.01
2018-11-01T03:36:13.671Z,953.98
2018-11-01T03:37:13.644Z,953.96
2018-11-01T03:38:13.691Z,953.93
2018-11-01T03:39:13.589Z,953.91
2018-11-01T03:40:13.563Z,953.82
2018-11-01T03:41:13.534Z,953.75
2018-11-01T03:42:13.508Z,953.72
2018-11-01T03:43:13.478Z,953.74
2018-11-01T03:44:13.451Z,953.72
2018-11-01T03:45:13.424Z,953.67
2018-11-01T03:46:13.398Z,953.62
2018-11-01T03:47:13.370Z,953.62
2018-11-01T03:48:13.341Z,953.58
2018-11-01T03:49:13.315Z,953.58
2018-11-01T03:50:13.290Z,953.57
2018-11-01T03:51:13.261Z,953.53
2018-11-01T03:52:14.035Z,953.50
2018-11-01T03:53:13.274Z,953.55
2018-11-01T03:54:13.235Z,953.61
2018-11-01T03:55:13.150Z,953.71
2018-11-01T03:56:13.123Z,953.74
2018-11-01T03:57:13.100Z,953.69
2018-11-01T03:58:13.068Z,953.65
2018-11-01T03:59:13.043Z,953.63
2018-11-01T04:00:13.015Z,953.60
2018-11-01T04:01:12.988Z,953.64
2018-11-01T04:02:12.958Z,953.64
2018-11-01T04:03:12.932Z,953.63
2018-11-01T04:04:12.905Z,953.65
2018-11-01T04:05:12.878Z,953.65
2018-11-01T04:06:12.849Z,953.61
2018-11-01T04:07:12.823Z,953.62
2018-11-01T04:08:12.798Z,953.59
2018-11-01T04:09:12.768Z,953.59
2018-11-01T04:10:12.740Z,953.50
2018-11-01T04:11:12.715Z,953.47
2018-11-01T04:12:12.687Z,953.39
2018-11-01T04:13:12.661Z,953.47
2018-11-01T04:14:14.134Z,953.56
2018-11-01T04:15:12.912Z,953.60
2018-11-01T04:16:12.579Z,953.65
2018-11-01T04:17:12.738Z,953.60
2018-11-01T04:18:12.524Z,953.45
2018-11-01T04:19:12.497Z,953.30
2018-11-01T04:20:12.469Z,953.20
2018-11-01T04:21:12.443Z,953.11
2018-11-01T04:22:12.416Z,953.13
2018-11-01T04:23:12.432Z,953.19
2018-11-01T04:24:12.360Z,953.19
2018-11-01T04:25:12.333Z,953.19
2018-11-01T04:26:12.314Z,953.22
2018-11-01T04:27:12.280Z,953.29
2018-11-01T04:28:12.253Z,953.39
2018-11-01T04:29:12.225Z,953.47
2018-11-01T04:30:12.199Z,953.53
2018-11-01T04:31:12.171Z,953.50
2018-11-01T04:32:12.143Z,953.48
2018-11-01T04:33:12.161Z,953.42
2018-11-01T04:34:12.089Z,953.40
2018-11-01T04:35:12.061Z,953.47
2018-11-01T04:36:12.047Z,953.47
2018-11-01T04:37:12.008Z,953.46
2018-11-01T04:38:11.979Z,953.45
2018-11-01T04:39:11.953Z,953.53
2018-11-01T04:40:11.925Z,953.55
2018-11-01T04:41:11.898Z,953.53
2018-11-01T04:42:11.870Z,953.50
2018-11-01T04:43:11.897Z,953.41
2018-11-01T04:44:11.822Z,953.37
2018-11-01T04:45:11.842Z,953.37
2018-11-01T04:46:11.769Z,953.28
2018-11-01T04:47:11.746Z,953.23
2018-11-01T04:48:11.708Z,953.14
2018-11-01T04:49:11.681Z,953.08
2018-11-01T04:50:11.658Z,953.00
2018-11-01T04:51:11.626Z,952.95
2018-11-01T04:52:11.606Z,952.91
2018-11-01T04:53:11.574Z,952.90
2018-11-01T04:54:11.545Z,952.91
2018-11-01T04:55:11.517Z,952.96
2018-11-01T04:56:11.492Z,953.00
2018-11-01T04:57:11.467Z,953.02
2018-11-01T04:58:11.436Z,953.05
2018-11-01T04:59:11.411Z,953.06
2018-11-01T05:00:11.384Z,953.08
2018-11-01T05:01:11.357Z,953.04
2018-11-01T05:02:11.328Z,953.04
2018-11-01T05:03:13.555Z,953.10
2018-11-01T05:04:11.277Z,953.08
2018-11-01T05:05:11.384Z,953.09
2018-11-01T05:06:11.220Z,953.14
2018-11-01T05:07:11.193Z,953.16
2018-11-01T05:08:11.214Z,953.22
2018-11-01T05:09:11.139Z,953.26
2018-11-01T05:10:11.112Z,953.25
2018-11-01T05:11:11.084Z,953.33
2018-11-01T05:12:11.057Z,953.33
2018-11-01T05:13:11.031Z,953.33
2018-11-01T05:14:11.003Z,953.31
2018-11-01T05:15:11.020Z,953.35
2018-11-01T05:16:10.949Z,953.38
2018-11-01T05:17:10.922Z,953.46
2018-11-01T05:18:10.895Z,953.40
2018-11-01T05:19:10.867Z,953.40
2018-11-01T05:20:11.593Z,953.32
2018-11-01T05:21:10.815Z,953.27
2018-11-01T05:22:10.787Z,953.30
2018-11-01T05:23:10.761Z,953.35
2018-11-01T05:24:10.734Z,953.39
2018-11-01T05:25:10.709Z,953.41
2018-11-01T05:26:10.679Z,953.39
2018-11-01T05:27:10.652Z,953.40
2018-11-01T05:28:10.625Z,953.38
2018-11-01T05:29:10.600Z,953.43
2018-11-01T05:30:10.573Z,953.40
2018-11-01T05:31:10.546Z,953.41
2018-11-01T05:32:10.517Z,953.39
2018-11-01T05:33:10.491Z,953.50
2018-11-01T05:34:10.470Z,953.50
2018-11-01T05:35:10.438Z,953.53
2018-11-01T05:36:10.409Z,953.49
2018-11-01T05:37:10.381Z,953.45
2018-11-01T05:38:10.398Z,953.40
2018-11-01T05:39:10.327Z,953.43
2018-11-01T05:40:10.300Z,953.43
2018-11-01T05:41:10.274Z,953.50
2018-11-01T05:42:11.760Z,953.44
2018-11-01T05:43:10.219Z,953.46
2018-11-01T05:44:10.192Z,953.38
2018-11-01T05:45:10.166Z,953.33
2018-11-01T05:46:10.137Z,953.28
2018-11-01T05:47:10.114Z,953.27
2018-11-01T05:48:12.334Z,953.22
2018-11-01T05:49:10.055Z,953.22
2018-11-01T05:50:10.027Z,953.21
2018-11-01T05:51:10.001Z,953.17
2018-11-01T05:52:09.973Z,953.07
2018-11-01T05:53:09.947Z,953.10
2018-11-01T05:54:09.918Z,953.06
2018-11-01T05:55:09.892Z,953.03
2018-11-01T05:56:09.864Z,953.04
2018-11-01T05:57:09.838Z,953.07
2018-11-01T05:58:09.811Z,953.14
2018-11-01T05:59:09.783Z,953.10
2018-11-01T06:00:09.756Z,953.14
2018-11-01T06:01:09.730Z,953.12
2018-11-01T06:02:09.702Z,953.09
2018-11-01T06:03:09.675Z,953.08
2018-11-01T06:04:09.648Z,953.04
2018-11-01T06:05:09.620Z,953.01
2018-11-01T06:06:09.593Z,952.98
2018-11-01T06:07:09.565Z,953.01
2018-11-01T06:08:09.539Z,953.14
2018-11-01T06:09:09.511Z,953.31
2018-11-01T06:10:09.484Z,953.47
2018-11-01T06:11:09.476Z,953.70
2018-11-01T06:12:09.467Z,953.65
2018-11-01T06:13:09.404Z,953.57
2018-11-01T06:14:09.376Z,953.46
2018-11-01T06:15:09.349Z,953.32
2018-11-01T06:16:09.322Z,953.31
2018-11-01T06:17:09.296Z,953.39
2018-11-01T06:18:09.268Z,953.49
2018-11-01T06:19:09.241Z,953.57
2018-11-01T06:20:09.214Z,953.60
2018-11-01T06:21:09.189Z,953.65
2018-11-01T06:22:09.161Z,953.67
2018-11-01T06:23:09.133Z,953.65
2018-11-01T06:24:09.108Z,953.68
2018-11-01T06:25:09.080Z,953.72
2018-11-01T06:26:09.053Z,953.75
2018-11-01T06:27:09.028Z,953.73
2018-11-01T06:28:09.001Z,953.73
2018-11-01T06:29:08.974Z,953.82
2018-11-01T06:30:11.965Z,953.84
2018-11-01T06:31:08.921Z,953.88
2018-11-01T06:32:08.893Z,953.87
2018-11-01T06:33:08.870Z,953.89
2018-11-01T06:34:08.839Z,953.94
2018-11-01T06:35:08.813Z,954.03
2018-11-01T06:36:11.037Z,954.08
2018-11-01T06:37:08.761Z,954.12
2018-11-01T06:38:08.731Z,954.14
2018-11-01T06:39:08.704Z,954.11
2018-11-01T06:40:08.678Z,954.10
2018-11-01T06:41:08.652Z,954.11
2018-11-01T06:42:08.624Z,954.13
2018-11-01T06:43:08.597Z,954.13
2018-11-01T06:44:08.571Z,954.19
2018-11-01T06:45:08.545Z,954.19
2018-11-01T06:46:08.517Z,954.17
2018-11-01T06:47:08.490Z,954.16
2018-11-01T06:48:08.466Z,954.13
2018-11-01T06:49:08.437Z,954.13
2018-11-01T06:50:08.409Z,954.14
2018-11-01T06:51:08.383Z,954.10
2018-11-01T06:52:08.356Z,954.12
2018-11-01T06:53:09.830Z,954.15
2018-11-01T06:54:08.303Z,954.13
2018-11-01T06:55:08.275Z,954.21
2018-11-01T06:56:08.249Z,954.31
2018-11-01T06:57:08.222Z,954.31
2018-11-01T06:58:08.200Z,954.30
2018-11-01T06:59:09.079Z,954.34
2018-11-01T07:00:08.142Z,954.38
2018-11-01T07:01:08.115Z,954.42
2018-11-01T07:02:08.087Z,954.41
2018-11-01T07:03:08.062Z,954.39
2018-11-01T07:04:08.034Z,954.37
2018-11-01T07:05:08.009Z,954.33
2018-11-01T07:06:07.980Z,954.36
2018-11-01T07:07:07.954Z,954.31
2018-11-01T07:08:07.928Z,954.37
2018-11-01T07:09:07.900Z,954.39
2018-11-01T07:10:13.877Z,954.45
2018-11-01T07:11:07.845Z,954.54
2018-11-01T07:12:07.819Z,954.50
2018-11-01T07:13:07.792Z,954.55
2018-11-01T07:14:07.765Z,954.60
2018-11-01T07:15:07.747Z,954.62
2018-11-01T07:16:07.713Z,954.70
2018-11-01T07:17:07.775Z,954.74
2018-11-01T07:18:07.659Z,954.70
2018-11-01T07:19:07.632Z,954.63
2018-11-01T07:20:07.608Z,954.59
2018-11-01T07:21:07.579Z,954.66
2018-11-01T07:22:07.550Z,954.67
2018-11-01T07:23:07.525Z,954.55
2018-11-01T07:24:07.496Z,954.50
2018-11-01T07:25:07.498Z,954.47
2018-11-01T07:26:07.548Z,954.50
2018-11-01T07:27:07.416Z,954.53
2018-11-01T07:28:07.389Z,954.55
2018-11-01T07:29:07.364Z,954.52
2018-11-01T07:30:07.335Z,954.49
2018-11-01T07:31:07.310Z,954.53
2018-11-01T07:32:10.285Z,954.58
2018-11-01T07:33:07.255Z,954.63
2018-11-01T07:34:07.228Z,954.70
2018-11-01T07:35:07.201Z,954.79
2018-11-01T07:36:07.174Z,954.75
2018-11-01T07:37:07.149Z,954.68
2018-11-01T07:38:07.120Z,954.72
2018-11-01T07:39:07.096Z,954.79
2018-11-01T07:40:07.178Z,954.86
2018-11-01T07:41:07.042Z,954.89
2018-11-01T07:42:07.015Z,954.87
2018-11-01T07:43:06.987Z,954.82
2018-11-01T07:44:06.962Z,954.73
2018-11-01T07:45:06.935Z,954.79
2018-11-01T07:46:06.909Z,954.90
2018-11-01T07:47:06.880Z,954.97
2018-11-01T07:48:06.855Z,955.03
2018-11-01T07:49:06.830Z,955.08
2018-11-01T07:50:06.801Z,955.09
2018-11-01T07:51:06.776Z,955.11
2018-11-01T07:52:06.747Z,955.12
2018-11-01T07:53:06.727Z,955.14
2018-11-01T07:54:06.693Z,955.17
2018-11-01T07:55:06.669Z,955.21
2018-11-01T07:56:06.642Z,955.21
2018-11-01T07:57:06.614Z,955.20
2018-11-01T07:58:06.589Z,955.23
2018-11-01T07:59:06.561Z,955.27
2018-11-01T08:00:06.536Z,955.28
2018-11-01T08:01:06.509Z,955.30
2018-11-01T08:02:06.482Z,955.23
2018-11-01T08:03:06.456Z,955.24
2018-11-01T08:04:06.429Z,955.30
2018-11-01T08:05:06.402Z,955.34
2018-11-01T08:06:06.386Z,955.35
2018-11-01T08:07:06.349Z,955.28
2018-11-01T08:08:06.322Z,955.23
2018-11-01T08:09:06.297Z,955.30
2018-11-01T08:10:06.270Z,955.34
2018-11-01T08:11:06.242Z,955.37
2018-11-01T08:12:06.216Z,955.35
2018-11-01T08:13:06.189Z,955.42
2018-11-01T08:14:06.162Z,955.49
2018-11-01T08:15:06.136Z,955.50
2018-11-01T08:16:06.110Z,955.63
2018-11-01T08:17:06.083Z,955.56
2018-11-01T08:18:06.058Z,955.58
2018-11-01T08:19:06.041Z,955.56
2018-11-01T08:20:06.242Z,955.62
2018-11-01T08:21:06.176Z,955.60
2018-11-01T08:22:05.950Z,955.60
2018-11-01T08:23:05.924Z,955.57
2018-11-01T08:24:05.899Z,955.59
2018-11-01T08:25:05.873Z,955.59
2018-11-01T08:26:05.845Z,955.57
2018-11-01T08:27:05.818Z,955.53
2018-11-01T08:28:05.862Z,955.62
2018-11-01T08:29:05.766Z,955.70
2018-11-01T08:30:05.738Z,955.75
2018-11-01T08:31:05.715Z,955.82
2018-11-01T08:32:05.686Z,955.83
2018-11-01T08:33:05.662Z,955.86
2018-11-01T08:34:05.636Z,955.83
2018-11-01T08:35:05.609Z,955.82
2018-11-01T08:36:05.583Z,955.80
2018-11-01T08:37:05.557Z,955.84
2018-11-01T08:38:05.534Z,955.80
2018-11-01T08:39:05.554Z,955.79
2018-11-01T08:40:05.478Z,955.78
2018-11-01T08:41:05.454Z,955.74
2018-11-01T08:42:05.426Z,955.73
2018-11-01T08:43:05.403Z,955.76
2018-11-01T08:44:05.376Z,955.76
2018-11-01T08:45:05.350Z,955.66
2018-11-01T08:46:05.326Z,955.63
2018-11-01T08:47:05.297Z,955.64
2018-11-01T08:48:05.271Z,955.58
2018-11-01T08:49:05.246Z,955.55
2018-11-01T08:50:05.251Z,955.57
2018-11-01T08:51:05.195Z,955.65
2018-11-01T08:52:05.170Z,955.67
2018-11-01T08:53:05.144Z,955.71
2018-11-01T08:54:05.118Z,955.71
2018-11-01T08:55:05.093Z,955.73
2018-11-01T08:56:05.084Z,955.72
2018-11-01T08:57:05.044Z,955.75
2018-11-01T08:58:05.017Z,955.75
2018-11-01T08:59:04.993Z,955.82
2018-11-01T09:00:04.969Z,955.84
2018-11-01T09:01:04.943Z,955.79
2018-11-01T09:02:04.918Z,955.80
2018-11-01T09:03:04.893Z,955.77
2018-11-01T09:04:04.975Z,955.77
2018-11-01T09:05:04.845Z,955.84
2018-11-01T09:06:04.820Z,955.82
2018-11-01T09:07:04.800Z,955.82
2018-11-01T09:08:04.791Z,955.85
2018-11-01T09:09:04.746Z,955.85
2018-11-01T09:10:04.721Z,955.74
2018-11-01T09:11:04.697Z,955.68
2018-11-01T09:12:04.678Z,955.64
2018-11-01T09:13:04.699Z,955.59
2018-11-01T09:14:04.625Z,955.56
2018-11-01T09:15:04.600Z,955.48
2018-11-01T09:16:04.579Z,955.43
2018-11-01T09:17:04.552Z,955.45
2018-11-01T09:18:04.599Z,955.42
2018-11-01T09:19:06.798Z,955.47
2018-11-01T09:20:04.479Z,955.44
2018-11-01T09:21:04.456Z,955.45
2018-11-01T09:22:04.431Z,955.46
2018-11-01T09:23:04.408Z,955.54
2018-11-01T09:24:04.386Z,955.58
2018-11-01T09:25:04.359Z,955.68
2018-11-01T09:26:04.336Z,955.70
2018-11-01T09:27:04.477Z,955.70
2018-11-01T09:28:04.290Z,955.77
2018-11-01T09:29:04.263Z,955.78
2018-11-01T09:30:04.238Z,955.78
2018-11-01T09:31:04.213Z,955.82
2018-11-01T09:32:04.189Z,955.85
2018-11-01T09:33:04.165Z,955.79
2018-11-01T09:34:04.140Z,955.75
2018-11-01T09:35:04.118Z,955.76
2018-11-01T09:36:04.091Z,955.70
2018-11-01T09:37:04.067Z,955.74
2018-11-01T09:38:04.045Z,955.67
2018-11-01T09:39:04.019Z,955.63
2018-11-01T09:40:03.995Z,955.65
2018-11-01T09:41:03.971Z,955.63
2018-11-01T09:42:03.945Z,955.64
2018-11-01T09:43:03.920Z,955.67
2018-11-01T09:44:03.895Z,955.72
2018-11-01T09:45:03.875Z,955.75
2018-11-01T09:46:03.973Z,955.73
2018-11-01T09:47:04.115Z,955.70
2018-11-01T09:48:03.799Z,955.70
2018-11-01T09:49:03.773Z,955.68
2018-11-01T09:50:03.748Z,955.66
2018-11-01T09:51:03.723Z,955.63
2018-11-01T09:52:03.700Z,955.61
2018-11-01T09:53:03.674Z,955.62
2018-11-01T09:54:03.656Z,955.65
2018-11-01T09:55:03.625Z,955.64
2018-11-01T09:56:03.676Z,955.68
2018-11-01T09:57:03.577Z,955.68
2018-11-01T09:58:03.551Z,955.67
2018-11-01T09:59:03.527Z,955.72
2018-11-01T10:00:03.503Z,955.77
2018-11-01T10:01:03.491Z,955.86
2018-11-01T10:02:03.454Z,955.84
2018-11-01T10:03:03.431Z,955.80
2018-11-01T10:04:03.406Z,955.76
2018-11-01T10:05:03.383Z,955.79
2018-11-01T10:06:03.455Z,955.79
2018-11-01T10:07:03.388Z,955.78
2018-11-01T10:08:03.310Z,955.80
2018-11-01T10:09:03.286Z,955.83
2018-11-01T10:10:03.261Z,955.80
2018-11-01T10:11:03.235Z,955.78
2018-11-01T10:12:03.211Z,955.82
2018-11-01T10:13:03.190Z,955.82
2018-11-01T10:14:03.163Z,955.77
2018-11-01T10:15:03.227Z,955.81
2018-11-01T10:16:03.180Z,955.81
2018-11-01T10:17:03.315Z,955.84
2018-11-01T10:18:04.132Z,955.88
2018-11-01T10:19:03.042Z,955.85
2018-11-01T10:20:03.018Z,955.86
2018-11-01T10:21:03.049Z,955.84
2018-11-01T10:22:03.111Z,955.77
2018-11-01T10:23:03.055Z,955.73
2018-11-01T10:24:02.923Z,955.70
2018-11-01T10:25:02.898Z,955.70
2018-11-01T10:26:02.881Z,955.75
2018-11-01T10:27:02.850Z,955.75
2018-11-01T10:28:02.831Z,955.80
2018-11-01T10:29:02.803Z,955.84
2018-11-01T10:30:02.781Z,955.91
2018-11-01T10:31:02.753Z,955.88
2018-11-01T10:32:02.730Z,955.92
2018-11-01T10:33:02.711Z,955.95
2018-11-01T10:34:02.841Z,956.00
2018-11-01T10:35:02.658Z,956.01
2018-11-01T10:36:02.635Z,956.03
2018-11-01T10:37:02.612Z,956.04
2018-11-01T10:38:02.587Z,956.00
2018-11-01T10:39:02.562Z,955.96
2018-11-01T10:40:02.576Z,955.95
2018-11-01T10:41:02.516Z,955.92
2018-11-01T10:42:02.490Z,955.98
2018-11-01T10:43:02.467Z,956.02
2018-11-01T10:44:02.446Z,956.03
2018-11-01T10:45:02.420Z,956.06
2018-11-01T10:46:02.395Z,956.05
2018-11-01T10:47:02.373Z,956.09
2018-11-01T10:48:02.349Z,956.00
2018-11-01T10:49:02.327Z,956.05
2018-11-01T10:50:03.054Z,956.06
2018-11-01T10:51:02.278Z,956.07
2018-11-01T10:52:02.253Z,956.10
2018-11-01T10:53:02.229Z,956.13
2018-11-01T10:54:02.263Z,956.14
2018-11-01T10:55:02.183Z,956.22
2018-11-01T10:56:02.158Z,956.16
2018-11-01T10:57:02.135Z,956.15
2018-11-01T10:58:02.113Z,956.13
2018-11-01T10:59:02.090Z,956.12
2018-11-01T11:00:02.200Z,956.17
2018-11-01T11:01:02.089Z,956.13
2018-11-01T11:02:02.018Z,956.18
2018-11-01T11:03:01.998Z,956.13
2018-11-01T11:04:01.970Z,956.13
2018-11-01T11:05:01.945Z,956.13
2018-11-01T11:06:01.927Z,956.14
2018-11-01T11:07:01.899Z,956.13
2018-11-01T11:08:01.874Z,956.15
2018-11-01T11:09:01.850Z,956.22
2018-11-01T11:10:01.827Z,956.27
2018-11-01T11:11:01.801Z,956.32
2018-11-01T11:12:01.781Z,956.30
2018-11-01T11:13:01.754Z,956.29
2018-11-01T11:14:01.731Z,956.32
2018-11-01T11:15:01.712Z,956.32
2018-11-01T11:16:01.684Z,956.30
2018-11-01T11:17:01.661Z,956.31
2018-11-01T11:18:01.636Z,956.29
2018-11-01T11:19:01.616Z,956.32
2018-11-01T11:20:01.633Z,956.35
2018-11-01T11:21:01.939Z,956.31
2018-11-01T11:22:01.541Z,956.35
2018-11-01T11:23:01.516Z,956.33
2018-11-01T11:24:01.493Z,956.36
2018-11-01T11:25:01.469Z,956.29
2018-11-01T11:26:01.446Z,956.30
2018-11-01T11:27:01.422Z,956.25
2018-11-01T11:28:01.398Z,956.28
2018-11-01T11:29:01.375Z,956.33
2018-11-01T11:30:01.394Z,956.29
2018-11-01T11:31:01.329Z,956.25
2018-11-01T11:32:01.304Z,956.21
2018-11-01T11:33:01.281Z,956.23
2018-11-01T11:34:01.256Z,956.20
2018-11-01T11:35:01.234Z,956.18
2018-11-01T11:36:01.314Z,956.23
2018-11-01T11:37:01.188Z,956.19
2018-11-01T11:38:01.162Z,956.20
2018-11-01T11:39:01.228Z,956.25
2018-11-01T11:40:01.120Z,956.20
2018-11-01T11:41:01.097Z,956.20
2018-11-01T11:42:01.070Z,956.20
2018-11-01T11:43:01.045Z,956.20
2018-11-01T11:44:01.024Z,956.25
2018-11-01T11:45:00.999Z,956.25
2018-11-01T11:46:00.978Z,956.27
2018-11-01T11:47:00.952Z,956.35
2018-11-01T11:48:00.928Z,956.30
2018-11-01T11:49:03.157Z,956.33
2018-11-01T11:50:00.880Z,956.30
2018-11-01T11:51:00.857Z,956.31
2018-11-01T11:52:00.834Z,956.31
2018-11-01T11:53:00.812Z,956.28
2018-11-01T11:54:00.788Z,956.25
2018-11-01T11:55:00.764Z,956.25
2018-11-01T11:56:00.743Z,956.21
2018-11-01T11:57:00.788Z,956.28
2018-11-01T11:58:00.695Z,956.20
2018-11-01T11:59:00.671Z,956.23
2018-11-01T12:00:00.647Z,956.17
2018-11-01T12:01:00.624Z,956.22
2018-11-01T12:02:00.600Z,956.19
2018-11-01T12:03:00.577Z,956.16
2018-11-01T12:04:00.555Z,956.17
2018-11-01T12:05:00.531Z,956.18
2018-11-01T12:06:00.548Z,956.15
2018-11-01T12:07:00.485Z,956.15
2018-11-01T12:08:00.461Z,956.18
2018-11-01T12:09:00.437Z,956.19
2018-11-01T12:10:00.414Z,956.15
2018-11-01T12:11:00.392Z,956.13
2018-11-01T12:12:00.368Z,956.18
2018-11-01T12:13:00.348Z,956.14
2018-11-01T12:14:00.383Z,956.09
2018-11-01T12:15:00.298Z,956.09
2018-11-01T12:16:01.777Z,956.03
2018-11-01T12:17:00.253Z,956.05
2018-11-01T12:18:00.228Z,956.00
2018-11-01T12:19:00.205Z,955.99
2018-11-01T12:20:00.182Z,955.95
2018-11-01T12:21:00.160Z,955.95
2018-11-01T12:22:04.640Z,955.97
2018-11-01T12:23:00.114Z,955.96
2018-11-01T12:24:00.091Z,955.97
2018-11-01T12:25:00.069Z,955.96
2018-11-01T12:26:00.043Z,955.94
2018-11-01T12:27:00.026Z,955.91
2018-11-01T12:27:59.997Z,955.95